createdAt,value
2023-04-16T00:00:42.882Z,99.99
2023-04-16T00:01:43.109Z,99.99
2023-04-16T00:02:43.381Z,99.99
2023-04-16T00:03:43.775Z,99.99
2023-04-16T00:04:43.849Z,99.99
2023-04-16T00:05:43.914Z,99.99
2023-04-16T00:06:44.106Z,99.99
2023-04-16T00:07:44.316Z,99.99
2023-04-16T00:08:44.534Z,99.99
2023-04-16T00:09:44.696Z,99.99
2023-04-16T00:10:44.998Z,99.99
2023-04-16T00:11:45.198Z,99.99
2023-04-16T00:12:45.378Z,99.99
2023-04-16T00:13:45.559Z,99.99
2023-04-16T00:14:45.772Z,99.99
2023-04-16T00:15:45.958Z,99.99
2023-04-16T00:16:46.315Z,99.99
2023-04-16T00:17:46.493Z,99.99
2023-04-16T00:18:46.692Z,99.99
2023-04-16T00:19:46.855Z,99.99
2023-04-16T00:20:47.158Z,99.99
2023-04-16T00:21:47.355Z,99.99
2023-04-16T00:22:47.601Z,99.99
2023-04-16T00:23:47.819Z,99.99
2023-04-16T00:24:48.000Z,99.99
2023-04-16T00:25:48.221Z,99.99
2023-04-16T00:26:48.406Z,99.99
2023-04-16T00:27:48.589Z,99.99
2023-04-16T00:28:48.808Z,99.99
2023-04-16T00:29:48.973Z,99.99
2023-04-16T00:30:49.211Z,99.99
2023-04-16T00:31:49.377Z,99.99
2023-04-16T00:32:49.614Z,99.99
2023-04-16T00:33:49.768Z,99.99
2023-04-16T00:34:49.970Z,99.99
2023-04-16T00:35:50.176Z,99.99
2023-04-16T00:36:50.366Z,99.99
2023-04-16T00:37:50.565Z,99.99
2023-04-16T00:38:50.853Z,99.99
2023-04-16T00:39:51.090Z,99.99
2023-04-16T00:40:51.258Z,99.99
2023-04-16T00:41:51.444Z,99.99
2023-04-16T00:42:51.785Z,99.99
2023-04-16T00:43:51.973Z,99.99
2023-04-16T00:44:52.151Z,99.99
2023-04-16T00:45:52.388Z,99.99
2023-04-16T00:46:52.569Z,99.99
2023-04-16T00:47:52.870Z,99.99
2023-04-16T00:48:52.966Z,99.99
2023-04-16T00:49:53.149Z,99.99
2023-04-16T00:50:53.350Z,99.99
2023-04-16T00:51:53.547Z,99.99
2023-04-16T00:52:53.744Z,99.99
2023-04-16T00:53:53.950Z,99.99
2023-04-16T00:54:55.172Z,99.99
2023-04-16T00:55:54.380Z,99.99
2023-04-16T00:56:54.602Z,99.99
2023-04-16T00:57:54.768Z,99.99
2023-04-16T00:58:54.936Z,99.99
2023-04-16T00:59:55.234Z,99.99
2023-04-16T01:00:55.434Z,99.99
2023-04-16T01:01:55.719Z,99.99
2023-04-16T01:02:55.986Z,99.99
2023-04-16T01:03:56.117Z,99.99
2023-04-16T01:04:56.211Z,99.99
2023-04-16T01:05:56.509Z,99.99
2023-04-16T01:06:56.686Z,99.99
2023-04-16T01:07:56.896Z,99.99
2023-04-16T01:08:57.072Z,99.99
2023-04-16T01:09:57.270Z,99.99
2023-04-16T01:10:57.447Z,99.99
2023-04-16T01:11:57.645Z,99.99
2023-04-16T01:12:57.847Z,99.99
2023-04-16T01:13:58.017Z,99.99
2023-04-16T01:14:58.228Z,99.99
2023-04-16T01:15:58.581Z,99.99
2023-04-16T01:16:58.745Z,99.99
2023-04-16T01:17:58.983Z,99.99
2023-04-16T01:18:59.154Z,99.99
2023-04-16T01:19:59.348Z,99.99
2023-04-16T01:20:59.525Z,99.99
2023-04-16T01:21:59.929Z,99.99
2023-04-16T01:23:00.034Z,99.99
2023-04-16T01:24:00.224Z,99.99
2023-04-16T01:25:00.462Z,99.99
2023-04-16T01:26:00.629Z,99.99
2023-04-16T01:27:00.866Z,99.99
2023-04-16T01:28:01.117Z,99.99
2023-04-16T01:29:01.290Z,99.99
2023-04-16T01:30:01.532Z,99.99
2023-04-16T01:31:01.787Z,99.99
2023-04-16T01:32:01.995Z,99.99
2023-04-16T01:33:02.293Z,99.99
2023-04-16T01:34:02.444Z,99.99
2023-04-16T01:35:02.626Z,99.99
2023-04-16T01:36:03.011Z,99.99
2023-04-16T01:37:03.191Z,99.99
2023-04-16T01:38:03.398Z,99.99
2023-04-16T01:39:03.576Z,99.99
2023-04-16T01:40:03.906Z,99.99
2023-04-16T01:41:04.144Z,99.99
2023-04-16T01:42:04.346Z,99.99
2023-04-16T01:43:04.553Z,99.99
2023-04-16T01:44:04.747Z,99.99
2023-04-16T01:45:04.921Z,99.99
2023-04-16T01:46:05.264Z,99.99
2023-04-16T01:47:05.484Z,99.99
2023-04-16T01:48:05.740Z,99.99
2023-04-16T01:49:05.853Z,99.99
2023-04-16T01:50:06.048Z,99.99
2023-04-16T01:51:06.218Z,99.99
2023-04-16T01:52:06.617Z,99.99
2023-04-16T01:53:06.772Z,99.99
2023-04-16T01:54:06.972Z,99.99
2023-04-16T01:55:07.165Z,99.99
2023-04-16T01:56:07.397Z,99.99
2023-04-16T01:57:07.614Z,99.99
2023-04-16T01:58:07.842Z,99.99
2023-04-16T01:59:08.321Z,99.99
2023-04-16T02:00:08.280Z,99.99
2023-04-16T02:01:08.476Z,99.99
2023-04-16T02:02:08.881Z,99.99
2023-04-16T02:03:09.163Z,99.99
2023-04-16T02:04:09.455Z,99.99
2023-04-16T02:05:09.541Z,99.99
2023-04-16T02:06:09.784Z,99.99
2023-04-16T02:07:09.963Z,99.99
2023-04-16T02:08:10.177Z,99.99
2023-04-16T02:09:10.525Z,99.99
2023-04-16T02:10:10.573Z,99.99
2023-04-16T02:11:10.768Z,99.99
2023-04-16T02:12:10.960Z,99.99
2023-04-16T02:13:11.481Z,99.99
2023-04-16T02:14:11.335Z,99.99
2023-04-16T02:15:11.501Z,99.99
2023-04-16T02:16:11.714Z,99.99
2023-04-16T02:17:11.868Z,99.99
2023-04-16T02:18:12.199Z,99.99
2023-04-16T02:19:12.807Z,99.99
2023-04-16T02:20:12.612Z,99.99
2023-04-16T02:21:13.625Z,99.99
2023-04-16T02:22:13.047Z,99.99
2023-04-16T02:23:13.242Z,99.99
2023-04-16T02:24:13.428Z,99.99
2023-04-16T02:25:13.616Z,99.99
2023-04-16T02:26:13.790Z,99.99
2023-04-16T02:27:14.087Z,99.99
2023-04-16T02:28:14.368Z,99.99
2023-04-16T02:29:14.549Z,99.99
2023-04-16T02:30:14.785Z,99.99
2023-04-16T02:31:14.946Z,99.99
2023-04-16T02:32:15.144Z,99.99
2023-04-16T02:33:15.373Z,99.99
2023-04-16T02:34:15.543Z,99.99
2023-04-16T02:35:15.723Z,99.99
2023-04-16T02:36:15.939Z,99.99
2023-04-16T02:37:16.140Z,99.99
2023-04-16T02:38:16.387Z,99.99
2023-04-16T02:39:16.522Z,99.99
2023-04-16T02:40:16.852Z,99.99
2023-04-16T02:41:17.038Z,99.99
2023-04-16T02:42:17.300Z,99.99
2023-04-16T02:43:17.510Z,99.99
2023-04-16T02:44:17.681Z,99.99
2023-04-16T02:45:17.866Z,99.99
2023-04-16T02:46:18.232Z,99.99
2023-04-16T02:47:18.289Z,99.99
2023-04-16T02:48:18.483Z,99.99
2023-04-16T02:49:18.685Z,99.99
2023-04-16T02:50:18.853Z,99.99
2023-04-16T02:51:19.033Z,99.99
2023-04-16T02:52:19.231Z,99.99
2023-04-16T02:53:19.425Z,99.99
2023-04-16T02:54:19.607Z,99.99
2023-04-16T02:55:19.854Z,99.99
2023-04-16T02:56:20.041Z,99.99
2023-04-16T02:57:20.195Z,99.99
2023-04-16T02:58:20.510Z,99.99
2023-04-16T02:59:20.670Z,99.99
2023-04-16T03:00:20.963Z,99.99
2023-04-16T03:01:21.162Z,99.99
2023-04-16T03:02:21.371Z,99.99
2023-04-16T03:03:21.604Z,99.99
2023-04-16T03:04:21.840Z,99.99
2023-04-16T03:05:22.023Z,99.99
2023-04-16T03:06:22.297Z,99.99
2023-04-16T03:07:22.587Z,99.99
2023-04-16T03:08:22.888Z,99.99
2023-04-16T03:09:23.062Z,99.99
2023-04-16T03:10:23.268Z,99.99
2023-04-16T03:11:23.429Z,99.99
2023-04-16T03:12:23.736Z,99.99
2023-04-16T03:13:23.896Z,99.99
2023-04-16T03:14:24.181Z,99.99
2023-04-16T03:15:24.439Z,99.99
2023-04-16T03:16:24.730Z,99.99
2023-04-16T03:17:24.956Z,99.99
2023-04-16T03:18:25.089Z,99.99
2023-04-16T03:19:25.266Z,99.99
2023-04-16T03:20:25.472Z,99.99
2023-04-16T03:21:25.657Z,99.99
2023-04-16T03:22:25.930Z,99.99
2023-04-16T03:23:26.099Z,99.99
2023-04-16T03:24:26.464Z,99.99
2023-04-16T03:25:26.613Z,99.99
2023-04-16T03:26:26.924Z,99.99
2023-04-16T03:27:27.105Z,99.99
2023-04-16T03:28:27.496Z,99.99
2023-04-16T03:29:27.664Z,99.99
2023-04-16T03:30:27.844Z,99.99
2023-04-16T03:31:28.058Z,99.99
2023-04-16T03:32:28.347Z,99.99
2023-04-16T03:33:28.426Z,99.99
2023-04-16T03:34:28.635Z,99.99
2023-04-16T03:35:28.862Z,99.99
2023-04-16T03:36:29.157Z,99.99
2023-04-16T03:37:29.296Z,99.99
2023-04-16T03:38:29.515Z,99.99
2023-04-16T03:39:29.777Z,99.99
2023-04-16T03:40:30.021Z,99.99
2023-04-16T03:41:30.277Z,99.99
2023-04-16T03:42:30.496Z,99.99
2023-04-16T03:43:30.745Z,99.99
2023-04-16T03:44:30.998Z,99.99
2023-04-16T03:45:31.273Z,99.99
2023-04-16T03:46:31.609Z,99.99
2023-04-16T03:47:31.805Z,99.99
2023-04-16T03:48:31.925Z,99.99
2023-04-16T03:49:32.166Z,99.99
2023-04-16T03:50:32.389Z,99.99
2023-04-16T03:51:32.575Z,99.99
2023-04-16T03:52:32.891Z,99.99
2023-04-16T03:53:33.070Z,99.99
2023-04-16T03:54:33.257Z,99.99
2023-04-16T03:55:33.445Z,99.99
2023-04-16T03:56:33.629Z,99.99
2023-04-16T03:57:33.800Z,99.99
2023-04-16T03:58:34.117Z,99.99
2023-04-16T03:59:34.291Z,99.99
2023-04-16T04:00:34.486Z,99.99
2023-04-16T04:01:34.722Z,99.99
2023-04-16T04:02:35.072Z,99.99
2023-04-16T04:03:35.275Z,99.99
2023-04-16T04:04:35.482Z,99.99
2023-04-16T04:05:35.588Z,99.99
2023-04-16T04:06:35.913Z,99.99
2023-04-16T04:07:36.119Z,99.99
2023-04-16T04:08:36.456Z,99.99
2023-04-16T04:09:36.652Z,99.99
2023-04-16T04:10:36.958Z,99.99
2023-04-16T04:11:37.139Z,99.99
2023-04-16T04:12:37.456Z,99.99
2023-04-16T04:13:37.674Z,99.99
2023-04-16T04:14:37.853Z,99.99
2023-04-16T04:15:38.067Z,99.99
2023-04-16T04:16:38.365Z,99.99
2023-04-16T04:17:38.690Z,99.99
2023-04-16T04:18:38.797Z,99.99
2023-04-16T04:19:44.509Z,99.99
2023-04-16T04:20:40.287Z,99.99
2023-04-16T04:21:39.479Z,99.99
2023-04-16T04:22:39.686Z,99.99
2023-04-16T04:23:39.888Z,99.99
2023-04-16T04:24:40.127Z,99.99
2023-04-16T04:25:40.338Z,99.99
2023-04-16T04:26:40.586Z,99.99
2023-04-16T04:27:40.783Z,99.99
2023-04-16T04:28:40.999Z,99.99
2023-04-16T04:29:41.195Z,99.99
2023-04-16T04:30:41.411Z,99.99
2023-04-16T04:31:41.667Z,99.99
2023-04-16T04:32:41.853Z,99.99
2023-04-16T04:33:42.036Z,99.99
2023-04-16T04:34:42.239Z,99.99
2023-04-16T04:35:42.453Z,99.99
2023-04-16T04:36:42.668Z,99.99
2023-04-16T04:37:42.906Z,99.99
2023-04-16T04:38:43.123Z,99.99
2023-04-16T04:39:43.315Z,99.99
2023-04-16T04:40:43.522Z,99.99
2023-04-16T04:41:43.713Z,99.99
2023-04-16T04:42:43.927Z,99.99
2023-04-16T04:43:44.182Z,99.99
2023-04-16T04:44:44.348Z,99.99
2023-04-16T04:45:44.598Z,99.99
2023-04-16T04:46:44.781Z,99.99
2023-04-16T04:47:45.026Z,99.99
2023-04-16T04:48:45.220Z,99.99
2023-04-16T04:49:45.434Z,99.99
2023-04-16T04:50:45.632Z,99.99
2023-04-16T04:51:45.852Z,99.99
2023-04-16T04:52:54.051Z,99.99
2023-04-16T04:53:46.267Z,99.99
2023-04-16T04:54:46.538Z,99.99
2023-04-16T04:55:46.714Z,99.99
2023-04-16T04:56:46.949Z,99.99
2023-04-16T04:57:47.131Z,99.99
2023-04-16T04:58:47.373Z,99.99
2023-04-16T04:59:47.549Z,99.99
2023-04-16T05:00:47.895Z,99.99
2023-04-16T05:01:48.084Z,99.99
2023-04-16T05:02:48.371Z,99.99
2023-04-16T05:03:48.558Z,99.99
2023-04-16T05:04:48.731Z,99.99
2023-04-16T05:05:48.913Z,99.99
2023-04-16T05:06:49.135Z,99.99
2023-04-16T05:07:49.353Z,99.99
2023-04-16T05:08:49.561Z,99.99
2023-04-16T05:09:49.798Z,99.99
2023-04-16T05:10:49.981Z,99.99
2023-04-16T05:11:50.183Z,99.99
2023-04-16T05:12:50.390Z,99.99
2023-04-16T05:13:50.595Z,99.99
2023-04-16T05:14:50.821Z,99.99
2023-04-16T05:15:51.021Z,99.99
2023-04-16T05:16:51.267Z,99.99
2023-04-16T05:17:51.565Z,99.99
2023-04-16T05:18:51.789Z,99.99
2023-04-16T05:19:51.998Z,99.99
2023-04-16T05:20:52.183Z,99.99
2023-04-16T05:21:52.386Z,99.99
2023-04-16T05:22:52.590Z,99.99
2023-04-16T05:23:52.809Z,99.99
2023-04-16T05:24:53.036Z,99.99
2023-04-16T05:25:53.235Z,99.99
2023-04-16T05:26:53.454Z,99.99
2023-04-16T05:27:53.653Z,99.99
2023-04-16T05:28:53.864Z,99.99
2023-04-16T05:29:54.080Z,99.99
2023-04-16T05:30:54.331Z,99.99
2023-04-16T05:31:54.493Z,99.99
2023-04-16T05:32:54.760Z,99.99
2023-04-16T05:33:55.019Z,99.99
2023-04-16T05:34:55.226Z,99.99
2023-04-16T05:35:55.434Z,99.99
2023-04-16T05:36:55.648Z,99.99
2023-04-16T05:37:55.838Z,99.99
2023-04-16T05:38:56.121Z,99.99
2023-04-16T05:39:56.335Z,99.99
2023-04-16T05:40:56.538Z,99.99
2023-04-16T05:41:56.748Z,99.99
2023-04-16T05:42:56.963Z,99.99
2023-04-16T05:43:57.382Z,99.99
2023-04-16T05:44:57.505Z,99.99
2023-04-16T05:45:57.777Z,99.99
2023-04-16T05:46:57.965Z,99.99
2023-04-16T05:47:58.225Z,99.99
2023-04-16T05:48:58.410Z,99.99
2023-04-16T05:49:58.609Z,99.99
2023-04-16T05:50:58.821Z,99.99
2023-04-16T05:51:59.016Z,99.99
2023-04-16T05:52:59.235Z,99.99
2023-04-16T05:53:59.440Z,99.99
2023-04-16T05:54:59.703Z,99.99
2023-04-16T05:55:59.896Z,99.99
2023-04-16T05:57:00.131Z,99.99
2023-04-16T05:58:00.322Z,99.99
2023-04-16T05:59:00.524Z,99.99
2023-04-16T06:00:00.758Z,99.99
2023-04-16T06:01:01.016Z,99.99
2023-04-16T06:02:01.230Z,99.99
2023-04-16T06:03:01.562Z,99.99
2023-04-16T06:04:01.788Z,99.99
2023-04-16T06:05:01.965Z,99.99
2023-04-16T06:06:02.085Z,99.99
2023-04-16T06:07:02.327Z,99.99
2023-04-16T06:08:02.526Z,99.99
2023-04-16T06:09:02.736Z,99.99
2023-04-16T06:10:02.962Z,99.99
2023-04-16T06:11:03.140Z,99.99
2023-04-16T06:12:03.351Z,99.99
2023-04-16T06:13:03.521Z,99.99
2023-04-16T06:14:03.728Z,99.99
2023-04-16T06:15:03.907Z,99.99
2023-04-16T06:16:04.125Z,99.99
2023-04-16T06:17:04.310Z,99.99
2023-04-16T06:18:04.563Z,99.99
2023-04-16T06:19:04.750Z,99.99
2023-04-16T06:20:04.966Z,99.99
2023-04-16T06:21:05.168Z,99.99
2023-04-16T06:22:05.376Z,99.99
2023-04-16T06:23:05.564Z,99.99
2023-04-16T06:24:05.773Z,99.99
2023-04-16T06:25:05.976Z,99.99
2023-04-16T06:26:06.175Z,99.99
2023-04-16T06:27:06.377Z,99.99
2023-04-16T06:28:06.592Z,99.99
2023-04-16T06:29:06.877Z,99.99
2023-04-16T06:30:07.050Z,99.99
2023-04-16T06:31:07.264Z,99.99
2023-04-16T06:32:07.448Z,99.99
2023-04-16T06:33:07.661Z,99.99
2023-04-16T06:34:07.877Z,99.99
2023-04-16T06:35:08.087Z,99.99
2023-04-16T06:36:08.403Z,99.99
2023-04-16T06:37:10.673Z,99.99
2023-04-16T06:38:08.864Z,99.99
2023-04-16T06:39:09.668Z,99.99
2023-04-16T06:40:09.342Z,99.99
2023-04-16T06:41:09.556Z,99.99
2023-04-16T06:42:09.717Z,99.99
2023-04-16T06:43:10.872Z,99.99
2023-04-16T06:44:10.172Z,99.99
2023-04-16T06:45:10.360Z,99.99
2023-04-16T06:46:10.562Z,99.99
2023-04-16T06:47:10.777Z,99.99
2023-04-16T06:48:11.033Z,99.99
2023-04-16T06:49:11.555Z,99.99
2023-04-16T06:50:11.491Z,99.99
2023-04-16T06:51:11.674Z,99.99
2023-04-16T06:52:11.986Z,99.99
2023-04-16T06:53:12.182Z,99.99
2023-04-16T06:54:12.377Z,99.99
2023-04-16T06:55:12.564Z,99.99
2023-04-16T06:56:12.762Z,99.99
2023-04-16T06:57:12.924Z,99.99
2023-04-16T06:58:13.235Z,99.99
2023-04-16T06:59:13.438Z,99.99
2023-04-16T07:00:13.624Z,99.99
2023-04-16T07:01:13.841Z,99.99
2023-04-16T07:02:14.070Z,99.99
2023-04-16T07:03:14.394Z,99.99
2023-04-16T07:04:14.575Z,99.99
2023-04-16T07:05:14.714Z,99.99
2023-04-16T07:06:15.013Z,99.99
2023-04-16T07:07:15.201Z,99.99
2023-04-16T07:08:15.382Z,99.99
2023-04-16T07:09:15.616Z,99.99
2023-04-16T07:10:15.799Z,99.99
2023-04-16T07:11:15.993Z,99.99
2023-04-16T07:12:16.299Z,99.99
2023-04-16T07:13:16.476Z,99.99
2023-04-16T07:14:16.700Z,99.99
2023-04-16T07:15:16.873Z,99.99
2023-04-16T07:16:17.201Z,99.99
2023-04-16T07:17:17.365Z,99.99
2023-04-16T07:18:18.779Z,99.99
2023-04-16T07:19:17.728Z,99.99
2023-04-16T07:20:17.913Z,99.99
2023-04-16T07:21:18.091Z,99.99
2023-04-16T07:22:18.382Z,99.99
2023-04-16T07:23:18.558Z,99.99
2023-04-16T07:24:18.908Z,99.99
2023-04-16T07:25:19.070Z,99.99
2023-04-16T07:26:19.404Z,99.99
2023-04-16T07:27:19.580Z,99.99
2023-04-16T07:28:19.856Z,99.99
2023-04-16T07:29:20.148Z,99.99
2023-04-16T07:30:20.320Z,99.99
2023-04-16T07:31:20.626Z,99.99
2023-04-16T07:32:21.000Z,99.99
2023-04-16T07:33:21.044Z,99.99
2023-04-16T07:34:21.251Z,99.99
2023-04-16T07:35:21.430Z,99.99
2023-04-16T07:36:21.624Z,99.99
2023-04-16T07:37:21.794Z,99.99
2023-04-16T07:38:22.133Z,99.99
2023-04-16T07:39:22.336Z,99.99
2023-04-16T07:40:22.576Z,99.99
2023-04-16T07:41:22.740Z,99.99
2023-04-16T07:42:22.953Z,99.99
2023-04-16T07:43:23.132Z,99.99
2023-04-16T07:44:23.440Z,99.99
2023-04-16T07:45:23.635Z,99.99
2023-04-16T07:46:25.010Z,99.99
2023-04-16T07:47:24.111Z,99.99
2023-04-16T07:48:24.377Z,99.99
2023-04-16T07:49:24.577Z,99.99
2023-04-16T07:50:24.850Z,99.99
2023-04-16T07:51:25.116Z,99.99
2023-04-16T07:52:25.341Z,99.99
2023-04-16T07:53:25.545Z,99.99
2023-04-16T07:54:27.340Z,99.99
2023-04-16T07:55:25.981Z,99.99
2023-04-16T07:56:26.264Z,99.99
2023-04-16T07:57:26.447Z,99.99
2023-04-16T07:58:26.742Z,99.99
2023-04-16T07:59:27.322Z,99.99
2023-04-16T08:00:27.160Z,99.99
2023-04-16T08:01:27.349Z,99.99
2023-04-16T08:02:27.728Z,99.99
2023-04-16T08:03:28.015Z,99.99
2023-04-16T08:04:28.246Z,99.99
2023-04-16T08:05:28.288Z,99.99
2023-04-16T08:06:28.419Z,99.99
2023-04-16T08:07:28.602Z,99.99
2023-04-16T08:08:28.896Z,99.99
2023-04-16T08:09:29.119Z,99.99
2023-04-16T08:10:29.312Z,99.99
2023-04-16T08:11:29.473Z,99.99
2023-04-16T08:12:29.775Z,99.99
2023-04-16T08:13:32.324Z,99.99
2023-04-16T08:14:30.206Z,99.99
2023-04-16T08:15:30.370Z,99.99
2023-04-16T08:16:30.696Z,99.99
2023-04-16T08:17:30.893Z,99.99
2023-04-16T08:18:31.169Z,99.99
2023-04-16T08:19:31.374Z,99.99
2023-04-16T08:20:31.555Z,99.99
2023-04-16T08:21:31.720Z,99.99
2023-04-16T08:22:32.018Z,99.99
2023-04-16T08:23:32.196Z,99.99
2023-04-16T08:24:32.397Z,99.99
2023-04-16T08:25:32.575Z,99.99
2023-04-16T08:26:32.787Z,99.99
2023-04-16T08:27:32.969Z,99.99
2023-04-16T08:28:33.155Z,99.99
2023-04-16T08:29:33.353Z,99.99
2023-04-16T08:30:33.549Z,99.99
2023-04-16T08:31:33.819Z,99.99
2023-04-16T08:32:34.022Z,99.99
2023-04-16T08:33:34.218Z,99.99
2023-04-16T08:34:34.413Z,99.99
2023-04-16T08:35:34.582Z,99.99
2023-04-16T08:36:34.879Z,99.99
2023-04-16T08:37:35.095Z,99.99
2023-04-16T08:38:35.295Z,99.99
2023-04-16T08:39:35.475Z,99.99
2023-04-16T08:40:35.676Z,99.99
2023-04-16T08:41:35.861Z,99.99
2023-04-16T08:42:36.065Z,99.99
2023-04-16T08:43:36.243Z,99.99
2023-04-16T08:44:36.558Z,99.99
2023-04-16T08:45:36.736Z,99.99
2023-04-16T08:46:36.959Z,99.99
2023-04-16T08:47:37.194Z,99.99
2023-04-16T08:48:37.399Z,99.99
2023-04-16T08:49:37.576Z,99.99
2023-04-16T08:50:37.760Z,99.99
2023-04-16T08:51:37.947Z,99.99
2023-04-16T08:52:38.148Z,99.99
2023-04-16T08:53:38.361Z,99.99
2023-04-16T08:54:38.560Z,99.99
2023-04-16T08:55:38.757Z,99.99
2023-04-16T08:56:39.482Z,99.99
2023-04-16T08:57:39.095Z,99.99
2023-04-16T08:58:39.442Z,99.99
2023-04-16T08:59:39.618Z,99.99
2023-04-16T09:00:39.815Z,99.99
2023-04-16T09:01:40.030Z,99.99
2023-04-16T09:02:40.576Z,99.99
2023-04-16T09:03:40.421Z,99.99
2023-04-16T09:04:40.771Z,99.99
2023-04-16T09:05:40.872Z,99.99
2023-04-16T09:06:41.180Z,99.99
2023-04-16T09:07:41.386Z,99.99
2023-04-16T09:08:41.568Z,99.99
2023-04-16T09:09:41.766Z,99.99
2023-04-16T09:10:41.942Z,99.99
2023-04-16T09:11:42.127Z,99.99
2023-04-16T09:12:42.344Z,99.99
2023-04-16T09:13:42.490Z,99.99
2023-04-16T09:14:42.847Z,99.99
2023-04-16T09:15:43.019Z,99.99
2023-04-16T09:16:43.320Z,99.99
2023-04-16T09:17:43.445Z,99.99
2023-04-16T09:18:43.640Z,99.99
2023-04-16T09:19:44.814Z,99.99
2023-04-16T09:20:44.117Z,99.99
2023-04-16T09:21:44.309Z,99.99
2023-04-16T09:22:44.493Z,99.99
2023-04-16T09:23:44.689Z,99.99
2023-04-16T09:24:44.891Z,99.99
2023-04-16T09:25:45.070Z,99.99
2023-04-16T09:26:45.250Z,99.99
2023-04-16T09:27:45.435Z,99.99
2023-04-16T09:28:45.618Z,99.99
2023-04-16T09:29:45.930Z,99.99
2023-04-16T09:30:46.117Z,99.99
2023-04-16T09:31:46.351Z,99.99
2023-04-16T09:32:46.493Z,99.99
2023-04-16T09:33:46.791Z,99.99
2023-04-16T09:34:46.984Z,99.99
2023-04-16T09:35:47.176Z,99.99
2023-04-16T09:36:47.357Z,99.99
2023-04-16T09:37:47.525Z,99.99
2023-04-16T09:38:47.696Z,99.99
2023-04-16T09:39:48.007Z,99.99
2023-04-16T09:40:48.237Z,99.99
2023-04-16T09:41:48.420Z,99.99
2023-04-16T09:42:48.603Z,99.99
2023-04-16T09:43:48.776Z,99.99
2023-04-16T09:44:49.146Z,99.99
2023-04-16T09:45:49.355Z,99.99
2023-04-16T09:46:49.560Z,99.99
2023-04-16T09:47:49.765Z,99.99
2023-04-16T09:48:49.964Z,99.99
2023-04-16T09:49:50.170Z,99.99
2023-04-16T09:50:50.390Z,99.99
2023-04-16T09:51:50.587Z,99.99
2023-04-16T09:52:50.761Z,99.99
2023-04-16T09:53:51.054Z,99.99
2023-04-16T09:54:51.245Z,99.99
2023-04-16T09:55:51.404Z,99.99
2023-04-16T09:56:51.596Z,99.99
2023-04-16T09:57:51.785Z,99.99
2023-04-16T09:58:51.970Z,99.99
2023-04-16T09:59:52.180Z,99.99
2023-04-16T10:00:52.434Z,99.99
2023-04-16T10:01:52.803Z,99.99
2023-04-16T10:02:52.900Z,99.99
2023-04-16T10:03:53.256Z,99.99
2023-04-16T10:04:53.524Z,99.99
2023-04-16T10:05:53.525Z,99.99
2023-04-16T10:06:53.718Z,99.99
2023-04-16T10:07:53.896Z,99.99
2023-04-16T10:08:54.076Z,99.99
2023-04-16T10:09:54.372Z,99.99
2023-04-16T10:10:54.541Z,99.99
2023-04-16T10:11:54.744Z,99.99
2023-04-16T10:12:54.919Z,99.99
2023-04-16T10:13:55.091Z,99.99
2023-04-16T10:14:55.284Z,99.99
2023-04-16T10:15:55.449Z,99.99
2023-04-16T10:16:55.688Z,99.99
2023-04-16T10:17:55.948Z,99.99
2023-04-16T10:18:56.135Z,99.99
2023-04-16T10:19:56.338Z,99.99
2023-04-16T10:20:56.545Z,99.99
2023-04-16T10:21:56.733Z,99.99
2023-04-16T10:22:56.924Z,99.99
2023-04-16T10:23:57.100Z,99.99
2023-04-16T10:24:57.306Z,99.99
2023-04-16T10:25:57.769Z,99.99
2023-04-16T10:26:57.696Z,99.99
2023-04-16T10:27:57.868Z,99.99
2023-04-16T10:28:58.026Z,99.99
2023-04-16T10:29:58.353Z,99.99
2023-04-16T10:30:58.537Z,99.99
2023-04-16T10:31:58.678Z,99.99
2023-04-16T10:33:00.461Z,99.99
2023-04-16T10:33:59.115Z,99.99
2023-04-16T10:34:59.292Z,99.99
2023-04-16T10:36:06.991Z,99.99
2023-04-16T10:37:00.738Z,99.99
2023-04-16T10:37:59.882Z,99.99
2023-04-16T10:39:00.044Z,99.69
2023-04-16T10:40:00.269Z,99.99
2023-04-16T10:41:00.407Z,99.99
2023-04-16T10:42:00.582Z,99.99
2023-04-16T10:43:00.763Z,99.29
2023-04-16T10:44:00.985Z,99.49
2023-04-16T10:45:01.182Z,99.99
2023-04-16T10:46:01.339Z,99.69
2023-04-16T10:47:01.486Z,99.13
2023-04-16T10:48:01.811Z,99.13
2023-04-16T10:49:01.973Z,98.72
2023-04-16T10:50:02.158Z,99.33
2023-04-16T10:51:02.304Z,99.64
2023-04-16T10:52:02.601Z,99.64
2023-04-16T10:53:10.141Z,99.54
2023-04-16T10:54:02.962Z,99.64
2023-04-16T10:55:03.154Z,99.43
2023-04-16T10:56:03.352Z,99.74
2023-04-16T10:57:04.475Z,99.74
2023-04-16T10:58:03.754Z,99.33
2023-04-16T10:59:04.906Z,99.54
2023-04-16T11:00:04.218Z,99.43
2023-04-16T11:01:04.354Z,99.54
2023-04-16T11:02:04.732Z,99.99
2023-04-16T11:03:04.896Z,99.18
2023-04-16T11:04:05.142Z,99.18
2023-04-16T11:05:05.240Z,98.93
2023-04-16T11:06:05.403Z,99.49
2023-04-16T11:07:05.569Z,99.54
2023-04-16T11:08:05.749Z,99.64
2023-04-16T11:09:05.908Z,99.64
2023-04-16T11:10:06.118Z,99.54
2023-04-16T11:11:06.280Z,98.82
2023-04-16T11:12:06.455Z,99.23
2023-04-16T11:13:06.624Z,98.61
2023-04-16T11:14:06.818Z,98.61
2023-04-16T11:15:07.071Z,99.13
2023-04-16T11:16:07.329Z,99.23
2023-04-16T11:17:07.382Z,98.61
2023-04-16T11:18:07.686Z,98.72
2023-04-16T11:19:07.945Z,98.93
2023-04-16T11:20:13.592Z,98.93
2023-04-16T11:21:09.301Z,99.29
2023-04-16T11:22:08.501Z,99.90
2023-04-16T11:23:08.665Z,99.49
2023-04-16T11:24:08.850Z,99.24
2023-04-16T11:25:09.045Z,98.52
2023-04-16T11:26:09.217Z,98.22
2023-04-16T11:27:09.409Z,96.89
2023-04-16T11:28:09.578Z,97.00
2023-04-16T11:29:09.918Z,96.54
2023-04-16T11:30:10.027Z,97.05
2023-04-16T11:31:10.203Z,96.30
2023-04-16T11:32:10.466Z,96.09
2023-04-16T11:33:10.645Z,95.28
2023-04-16T11:34:10.862Z,94.72
2023-04-16T11:35:11.015Z,95.03
2023-04-16T11:36:11.190Z,95.43
2023-04-16T11:37:11.350Z,94.21
2023-04-16T11:38:11.781Z,93.19
2023-04-16T11:39:12.065Z,93.09
2023-04-16T11:40:12.049Z,95.18
2023-04-16T11:41:12.197Z,92.74
2023-04-16T11:42:12.408Z,93.35
2023-04-16T11:43:12.541Z,92.33
2023-04-16T11:44:12.694Z,92.07
2023-04-16T11:45:12.876Z,92.18
2023-04-16T11:46:24.491Z,93.50
2023-04-16T11:47:14.313Z,93.50
2023-04-16T11:48:13.512Z,93.19
2023-04-16T11:49:13.913Z,93.19
2023-04-16T11:50:13.891Z,92.89
2023-04-16T11:51:13.999Z,93.60
2023-04-16T11:52:14.182Z,94.01
2023-04-16T11:53:14.352Z,95.03
2023-04-16T11:54:14.492Z,94.15
2023-04-16T11:55:14.669Z,94.05
2023-04-16T11:56:14.840Z,95.12
2023-04-16T11:57:15.000Z,95.01
2023-04-16T11:58:15.150Z,95.57
2023-04-16T11:59:15.809Z,95.87
2023-04-16T12:00:15.545Z,95.77
2023-04-16T12:01:15.710Z,95.47
2023-04-16T12:02:15.935Z,95.51
2023-04-16T12:03:16.444Z,95.72
2023-04-16T12:04:16.544Z,96.94
2023-04-16T12:05:16.525Z,97.04
2023-04-16T12:06:16.654Z,97.34
2023-04-16T12:07:16.816Z,96.84
2023-04-16T12:08:16.986Z,96.84
2023-04-16T12:09:17.156Z,97.34
2023-04-16T12:10:17.334Z,96.43
2023-04-16T12:11:17.498Z,96.73
2023-04-16T12:12:17.684Z,95.92
2023-04-16T12:13:17.844Z,96.33
2023-04-16T12:14:18.124Z,96.02
2023-04-16T12:15:18.311Z,96.02
2023-04-16T12:16:18.495Z,96.33
2023-04-16T12:17:18.683Z,96.43
2023-04-16T12:18:18.888Z,96.73
2023-04-16T12:19:19.076Z,96.73
2023-04-16T12:20:19.238Z,96.22
2023-04-16T12:21:19.412Z,96.53
2023-04-16T12:22:19.676Z,96.73
2023-04-16T12:23:19.841Z,96.94
2023-04-16T12:24:20.122Z,96.53
2023-04-16T12:25:20.293Z,97.04
2023-04-16T12:26:20.460Z,97.08
2023-04-16T12:27:20.617Z,97.70
2023-04-16T12:28:20.807Z,97.29
2023-04-16T12:29:20.999Z,97.39
2023-04-16T12:30:21.213Z,97.39
2023-04-16T12:31:21.466Z,97.49
2023-04-16T12:32:21.688Z,97.80
2023-04-16T12:33:21.808Z,96.78
2023-04-16T12:34:21.992Z,95.90
2023-04-16T12:35:23.144Z,96.62
2023-04-16T12:36:22.322Z,96.51
2023-04-16T12:37:22.504Z,96.72
2023-04-16T12:38:24.520Z,96.51
2023-04-16T12:39:22.916Z,96.83
2023-04-16T12:40:23.237Z,97.03
2023-04-16T12:41:23.445Z,96.62
2023-04-16T12:42:23.699Z,95.80
2023-04-16T12:43:24.045Z,96.31
2023-04-16T12:44:24.087Z,96.51
2023-04-16T12:45:24.286Z,95.70
2023-04-16T12:46:24.492Z,95.70
2023-04-16T12:47:24.649Z,95.90
2023-04-16T12:48:24.911Z,95.70
2023-04-16T12:49:25.124Z,95.50
2023-04-16T12:50:25.323Z,95.90
2023-04-16T12:51:25.640Z,95.70
2023-04-16T12:52:25.809Z,96.11
2023-04-16T12:53:26.017Z,96.42
2023-04-16T12:54:26.161Z,95.80
2023-04-16T12:55:26.378Z,95.29